sensor_id;sensor_type;location;lat;lon;timestamp;P1;P2;P0
71858;PMS5003;59713;50.866;4.324;2023-10-13T00:00:31;12;12;
71858;PMS5003;59713;50.866;4.324;2023-10-13T00:01:31;12;12;
71858;PMS5003;59713;50.866;4.324;2023-10-13T00:02:31;14;12;
71858;PMS5003;59713;50.866;4.324;2023-10-13T00:03:31;14;12;
71858;PMS5003;59713;50.866;4.324;2023-10-13T00:03:31;14;12;
71858;PMS5003;59713;50.866;4.324;2023-10-13T00:04:32;14;12;
71858;PMS5003;59713;50.866;4.324;2023-10-13T00:05:32;14;14;
71858;PMS5003;59713;50.866;4.324;2023-10-13T00:06:31;14;14;
71858;PMS5003;59713;50.866;4.324;2023-10-13T00:07:31;14;14;
71858;PMS5003;59713;50.866;4.324;2023-10-13T00:08:31;15;15;
71858;PMS5003;59713;50.866;4.324;2023-10-13T00:09:31;15;15;
71858;PMS5003;59713;50.866;4.324;2023-10-13T00:10:32;15;15;
71858;PMS5003;59713;50.866;4.324;2023-10-13T00:11:31;13;11;
71858;PMS5003;59713;50.866;4.324;2023-10-13T00:12:31;13;11;
71858;PMS5003;59713;50.866;4.324;2023-10-13T00:12:31;13;11;
71858;PMS5003;59713;50.866;4.324;2023-10-13T00:13:31;13;11;
71858;PMS5003;59713;50.866;4.324;2023-10-13T00:14:31;20;17;
71858;PMS5003;59713;50.866;4.324;2023-10-13T00:15:31;20;17;
71858;PMS5003;59713;50.866;4.324;2023-10-13T00:16:31;20;17;
71858;PMS5003;59713;50.866;4.324;2023-10-13T00:17:31;18;15;
71858;PMS5003;59713;50.866;4.324;2023-10-13T00:18:31;18;15;
71858;PMS5003;59713;50.866;4.324;2023-10-13T00:19:32;18;15;
71858;PMS5003;59713;50.866;4.324;2023-10-13T00:20:31;16;16;
71858;PMS5003;59713;50.866;4.324;2023-10-13T00:21:31;16;16;
71858;PMS5003;59713;50.866;4.324;2023-10-13T00:21:31;16;16;
71858;PMS5003;59713;50.866;4.324;2023-10-13T00:22:31;16;16;
71858;PMS5003;59713;50.866;4.324;2023-10-13T00:23:31;19;17;
71858;PMS5003;59713;50.866;4.324;2023-10-13T00:24:31;19;17;
71858;PMS5003;59713;50.866;4.324;2023-10-13T00:25:31;19;17;
71858;PMS5003;59713;50.866;4.324;2023-10-13T00:26:31;11;10;
71858;PMS5003;59713;50.866;4.324;2023-10-13T00:27:31;11;10;
71858;PMS5003;59713;50.866;4.324;2023-10-13T00:28:31;11;10;
71858;PMS5003;59713;50.866;4.324;2023-10-13T00:29:31;18;17;
71858;PMS5003;59713;50.866;4.324;2023-10-13T00:30:31;18;17;
71858;PMS5003;59713;50.866;4.324;2023-10-13T00:30:31;18;17;
71858;PMS5003;59713;50.866;4.324;2023-10-13T00:31:31;18;17;
71858;PMS5003;59713;50.866;4.324;2023-10-13T00:32:31;21;17;
71858;PMS5003;59713;50.866;4.324;2023-10-13T00:33:31;21;17;
71858;PMS5003;59713;50.866;4.324;2023-10-13T00:34:31;21;17;
71858;PMS5003;59713;50.866;4.324;2023-10-13T00:35:32;19;16;
71858;PMS5003;59713;50.866;4.324;2023-10-13T00:36:31;19;16;
71858;PMS5003;59713;50.866;4.324;2023-10-13T00:37:36;19;16;
71858;PMS5003;59713;50.866;4.324;2023-10-13T00:38:31;16;16;
71858;PMS5003;59713;50.866;4.324;2023-10-13T00:39:31;16;16;
71858;PMS5003;59713;50.866;4.324;2023-10-13T00:39:31;16;16;
71858;PMS5003;59713;50.866;4.324;2023-10-13T00:40:32;16;16;
71858;PMS5003;59713;50.866;4.324;2023-10-13T00:41:31;17;15;
71858;PMS5003;59713;50.866;4.324;2023-10-13T00:42:31;17;15;
71858;PMS5003;59713;50.866;4.324;2023-10-13T00:43:33;17;15;
71858;PMS5003;59713;50.866;4.324;2023-10-13T00:44:31;20;16;
71858;PMS5003;59713;50.866;4.324;2023-10-13T00:45:31;20;16;
71858;PMS5003;59713;50.866;4.324;2023-10-13T00:46:32;20;16;
71858;PMS5003;59713;50.866;4.324;2023-10-13T00:47:31;21;16;
71858;PMS5003;59713;50.866;4.324;2023-10-13T00:48:32;21;16;
71858;PMS5003;59713;50.866;4.324;2023-10-13T00:49:31;21;16;
71858;PMS5003;59713;50.866;4.324;2023-10-13T00:49:31;21;16;
71858;PMS5003;59713;50.866;4.324;2023-10-13T00:50:31;17;15;
71858;PMS5003;59713;50.866;4.324;2023-10-13T00:51:31;17;15;
71858;PMS5003;59713;50.866;4.324;2023-10-13T00:52:31;17;15;
71858;PMS5003;59713;50.866;4.324;2023-10-13T00:53:32;24;18;
71858;PMS5003;59713;50.866;4.324;2023-10-13T00:54:32;24;18;
71858;PMS5003;59713;50.866;4.324;2023-10-13T00:55:31;24;18;
71858;PMS5003;59713;50.866;4.324;2023-10-13T00:56:31;20;18;
71858;PMS5003;59713;50.866;4.324;2023-10-13T00:57:31;20;18;
71858;PMS5003;59713;50.866;4.324;2023-10-13T00:58:32;20;18;
71858;PMS5003;59713;50.866;4.324;2023-10-13T00:58:32;20;18;
71858;PMS5003;59713;50.866;4.324;2023-10-13T00:59:31;25;24;
71858;PMS5003;59713;50.866;4.324;2023-10-13T01:00:32;25;24;
71858;PMS5003;59713;50.866;4.324;2023-10-13T01:01:31;25;24;
71858;PMS5003;59713;50.866;4.324;2023-10-13T01:02:31;27;19;
71858;PMS5003;59713;50.866;4.324;2023-10-13T01:03:31;27;19;
71858;PMS5003;59713;50.866;4.324;2023-10-13T01:04:32;27;19;
71858;PMS5003;59713;50.866;4.324;2023-10-13T01:05:31;19;18;
71858;PMS5003;59713;50.866;4.324;2023-10-13T01:06:31;19;18;
71858;PMS5003;59713;50.866;4.324;2023-10-13T01:07:31;19;18;
71858;PMS5003;59713;50.866;4.324;2023-10-13T01:08:32;21;15;
71858;PMS5003;59713;50.866;4.324;2023-10-13T01:08:32;21;15;
71858;PMS5003;59713;50.866;4.324;2023-10-13T01:09:31;21;15;
71858;PMS5003;59713;50.866;4.324;2023-10-13T01:10:32;21;15;
71858;PMS5003;59713;50.866;4.324;2023-10-13T01:11:31;24;16;
71858;PMS5003;59713;50.866;4.324;2023-10-13T01:12:32;24;16;
71858;PMS5003;59713;50.866;4.324;2023-10-13T01:13:32;24;16;
71858;PMS5003;59713;50.866;4.324;2023-10-13T01:14:31;25;20;
71858;PMS5003;59713;50.866;4.324;2023-10-13T01:15:32;25;20;
71858;PMS5003;59713;50.866;4.324;2023-10-13T01:16:31;25;20;
71858;PMS5003;59713;50.866;4.324;2023-10-13T01:17:31;16;16;
71858;PMS5003;59713;50.866;4.324;2023-10-13T01:17:32;16;16;
71858;PMS5003;59713;50.866;4.324;2023-10-13T01:18:32;16;16;
71858;PMS5003;59713;50.866;4.324;2023-10-13T01:19:35;16;16;
71858;PMS5003;59713;50.866;4.324;2023-10-13T01:20:32;19;18;
71858;PMS5003;59713;50.866;4.324;2023-10-13T01:21:32;19;18;
71858;PMS5003;59713;50.866;4.324;2023-10-13T01:22:31;19;18;
71858;PMS5003;59713;50.866;4.324;2023-10-13T01:23:31;19;17;
71858;PMS5003;59713;50.866;4.324;2023-10-13T01:24:32;19;17;
71858;PMS5003;59713;50.866;4.324;2023-10-13T01:25:31;19;17;
71858;PMS5003;59713;50.866;4.324;2023-10-13T01:26:32;24;18;
71858;PMS5003;59713;50.866;4.324;2023-10-13T01:26:32;24;18;
71858;PMS5003;59713;50.866;4.324;2023-10-13T01:27:34;24;18;
71858;PMS5003;59713;50.866;4.324;2023-10-13T01:28:32;24;18;
71858;PMS5003;59713;50.866;4.324;2023-10-13T01:29:32;24;20;
71858;PMS5003;59713;50.866;4.324;2023-10-13T01:30:32;24;20;
71858;PMS5003;59713;50.866;4.324;2023-10-13T01:31:31;24;20;
71858;PMS5003;59713;50.866;4.324;2023-10-13T01:32:32;14;12;
71858;PMS5003;59713;50.866;4.324;2023-10-13T01:33:32;14;12;
71858;PMS5003;59713;50.866;4.324;2023-10-13T01:34:32;14;12;
71858;PMS5003;59713;50.866;4.324;2023-10-13T01:35:32;20;18;
71858;PMS5003;59713;50.866;4.324;2023-10-13T01:35:32;20;18;
71858;PMS5003;59713;50.866;4.324;2023-10-13T01:36:32;20;18;
71858;PMS5003;59713;50.866;4.324;2023-10-13T01:37:32;20;18;
71858;PMS5003;59713;50.866;4.324;2023-10-13T01:38:32;17;17;
71858;PMS5003;59713;50.866;4.324;2023-10-13T01:39:32;17;17;
71858;PMS5003;59713;50.866;4.324;2023-10-13T01:40:32;17;17;
71858;PMS5003;59713;50.866;4.324;2023-10-13T01:41:32;21;21;
71858;PMS5003;59713;50.866;4.324;2023-10-13T01:42:32;21;21;
71858;PMS5003;59713;50.866;4.324;2023-10-13T01:43:32;21;21;
71858;PMS5003;59713;50.866;4.324;2023-10-13T01:44:32;23;20;
71858;PMS5003;59713;50.866;4.324;2023-10-13T01:44:32;23;20;
71858;PMS5003;59713;50.866;4.324;2023-10-13T01:45:32;23;20;
71858;PMS5003;59713;50.866;4.324;2023-10-13T01:46:32;23;20;
71858;PMS5003;59713;50.866;4.324;2023-10-13T01:47:32;22;21;
71858;PMS5003;59713;50.866;4.324;2023-10-13T01:48:32;22;21;
71858;PMS5003;59713;50.866;4.324;2023-10-13T01:49:32;22;21;
71858;PMS5003;59713;50.866;4.324;2023-10-13T01:50:32;21;19;
71858;PMS5003;59713;50.866;4.324;2023-10-13T01:51:32;21;19;
71858;PMS5003;59713;50.866;4.324;2023-10-13T01:52:32;21;19;
71858;PMS5003;59713;50.866;4.324;2023-10-13T01:53:33;22;20;
71858;PMS5003;59713;50.866;4.324;2023-10-13T01:53:33;22;20;
71858;PMS5003;59713;50.866;4.324;2023-10-13T01:54:32;22;20;
71858;PMS5003;59713;50.866;4.324;2023-10-13T01:55:32;22;20;
71858;PMS5003;59713;50.866;4.324;2023-10-13T01:56:32;21;19;
71858;PMS5003;59713;50.866;4.324;2023-10-13T01:57:32;21;19;
71858;PMS5003;59713;50.866;4.324;2023-10-13T01:58:32;21;19;
71858;PMS5003;59713;50.866;4.324;2023-10-13T01:59:32;25;22;
71858;PMS5003;59713;50.866;4.324;2023-10-13T02:00:32;25;22;
71858;PMS5003;59713;50.866;4.324;2023-10-13T02:01:33;25;22;
71858;PMS5003;59713;50.866;4.324;2023-10-13T02:02:32;27;19;
71858;PMS5003;59713;50.866;4.324;2023-10-13T02:02:32;27;19;
71858;PMS5003;59713;50.866;4.324;2023-10-13T02:03:32;27;19;
71858;PMS5003;59713;50.866;4.324;2023-10-13T02:04:32;27;19;
71858;PMS5003;59713;50.866;4.324;2023-10-13T02:05:32;18;18;
71858;PMS5003;59713;50.866;4.324;2023-10-13T02:06:33;18;18;
71858;PMS5003;59713;50.866;4.324;2023-10-13T02:07:32;18;18;
71858;PMS5003;59713;50.866;4.324;2023-10-13T02:08:32;16;16;
71858;PMS5003;59713;50.866;4.324;2023-10-13T02:09:32;16;16;
71858;PMS5003;59713;50.866;4.324;2023-10-13T02:10:32;16;16;
71858;PMS5003;59713;50.866;4.324;2023-10-13T02:11:32;20;20;
71858;PMS5003;59713;50.866;4.324;2023-10-13T02:11:32;20;20;
71858;PMS5003;59713;50.866;4.324;2023-10-13T02:12:32;20;20;
71858;PMS5003;59713;50.866;4.324;2023-10-13T02:13:32;20;20;
71858;PMS5003;59713;50.866;4.324;2023-10-13T02:14:32;22;18;
71858;PMS5003;59713;50.866;4.324;2023-10-13T02:15:32;22;18;
71858;PMS5003;59713;50.866;4.324;2023-10-13T02:16:32;22;18;
71858;PMS5003;59713;50.866;4.324;2023-10-13T02:17:32;15;15;
71858;PMS5003;59713;50.866;4.324;2023-10-13T02:18:32;15;15;
71858;PMS5003;59713;50.866;4.324;2023-10-13T02:19:32;15;15;
71858;PMS5003;59713;50.866;4.324;2023-10-13T02:20:32;15;15;
71858;PMS5003;59713;50.866;4.324;2023-10-13T02:20:32;15;15;
71858;PMS5003;59713;50.866;4.324;2023-10-13T02:21:32;15;15;
71858;PMS5003;59713;50.866;4.324;2023-10-13T02:22:32;15;15;
71858;PMS5003;59713;50.866;4.324;2023-10-13T02:23:32;12;11;
71858;PMS5003;59713;50.866;4.324;2023-10-13T02:24:32;12;11;
71858;PMS5003;59713;50.866;4.324;2023-10-13T02:25:32;12;11;
71858;PMS5003;59713;50.866;4.324;2023-10-13T02:26:32;17;16;
71858;PMS5003;59713;50.866;4.324;2023-10-13T02:27:32;17;16;
71858;PMS5003;59713;50.866;4.324;2023-10-13T02:28:32;17;16;
71858;PMS5003;59713;50.866;4.324;2023-10-13T02:29:32;15;15;
71858;PMS5003;59713;50.866;4.324;2023-10-13T02:30:32;15;15;
71858;PMS5003;59713;50.866;4.324;2023-10-13T02:30:32;15;15;
71858;PMS5003;59713;50.866;4.324;2023-10-13T02:31:32;15;15;
71858;PMS5003;59713;50.866;4.324;2023-10-13T02:32:32;17;13;
71858;PMS5003;59713;50.866;4.324;2023-10-13T02:33:32;17;13;
71858;PMS5003;59713;50.866;4.324;2023-10-13T02:34:32;17;13;
71858;PMS5003;59713;50.866;4.324;2023-10-13T02:35:32;15;14;
71858;PMS5003;59713;50.866;4.324;2023-10-13T02:36:32;15;14;
71858;PMS5003;59713;50.866;4.324;2023-10-13T02:37:32;15;14;
71858;PMS5003;59713;50.866;4.324;2023-10-13T02:38:32;13;7;
71858;PMS5003;59713;50.866;4.324;2023-10-13T02:39:32;13;7;
71858;PMS5003;59713;50.866;4.324;2023-10-13T02:39:32;13;7;
71858;PMS5003;59713;50.866;4.324;2023-10-13T02:40:34;13;7;
71858;PMS5003;59713;50.866;4.324;2023-10-13T02:41:32;17;15;
71858;PMS5003;59713;50.866;4.324;2023-10-13T02:42:32;17;15;
71858;PMS5003;59713;50.866;4.324;2023-10-13T02:43:33;17;15;
71858;PMS5003;59713;50.866;4.324;2023-10-13T02:44:32;13;13;
71858;PMS5003;59713;50.866;4.324;2023-10-13T02:45:32;13;13;
71858;PMS5003;59713;50.866;4.324;2023-10-13T02:46:32;13;13;
71858;PMS5003;59713;50.866;4.324;2023-10-13T02:47:32;23;14;
71858;PMS5003;59713;50.866;4.324;2023-10-13T02:48:32;23;14;
71858;PMS5003;59713;50.866;4.324;2023-10-13T02:48:32;23;14;
71858;PMS5003;59713;50.866;4.324;2023-10-13T02:49:32;23;14;
71858;PMS5003;59713;50.866;4.324;2023-10-13T02:50:32;19;15;
71858;PMS5003;59713;50.866;4.324;2023-10-13T02:51:32;19;15;
71858;PMS5003;59713;50.866;4.324;2023-10-13T02:52:32;19;15;
71858;PMS5003;59713;50.866;4.324;2023-10-13T02:53:32;13;13;
71858;PMS5003;59713;50.866;4.324;2023-10-13T02:54:32;13;13;
71858;PMS5003;59713;50.866;4.324;2023-10-13T02:55:32;13;13;
71858;PMS5003;59713;50.866;4.324;2023-10-13T02:56:32;13;12;
71858;PMS5003;59713;50.866;4.324;2023-10-13T02:57:35;13;12;
71858;PMS5003;59713;50.866;4.324;2023-10-13T02:57:35;13;12;
71858;PMS5003;59713;50.866;4.324;2023-10-13T02:58:32;13;12;
71858;PMS5003;59713;50.866;4.324;2023-10-13T02:59:32;17;13;
71858;PMS5003;59713;50.866;4.324;2023-10-13T03:00:32;17;13;
71858;PMS5003;59713;50.866;4.324;2023-10-13T03:01:32;17;13;
71858;PMS5003;59713;50.866;4.324;2023-10-13T03:02:32;14;14;
71858;PMS5003;59713;50.866;4.324;2023-10-13T03:03:32;14;14;
71858;PMS5003;59713;50.866;4.324;2023-10-13T03:04:32;14;14;
71858;PMS5003;59713;50.866;4.324;2023-10-13T03:05:34;14;13;
71858;PMS5003;59713;50.866;4.324;2023-10-13T03:06:32;14;13;
71858;PMS5003;59713;50.866;4.324;2023-10-13T03:07:32;14;13;
71858;PMS5003;59713;50.866;4.324;2023-10-13T03:07:32;14;13;
71858;PMS5003;59713;50.866;4.324;2023-10-13T03:08:32;15;11;
71858;PMS5003;59713;50.866;4.324;2023-10-13T03:09:32;15;11;
71858;PMS5003;59713;50.866;4.324;2023-10-13T03:10:32;15;11;
71858;PMS5003;59713;50.866;4.324;2023-10-13T03:11:32;13;13;
71858;PMS5003;59713;50.866;4.324;2023-10-13T03:12:32;13;13;
71858;PMS5003;59713;50.866;4.324;2023-10-13T03:13:32;13;13;
71858;PMS5003;59713;50.866;4.324;2023-10-13T03:14:32;16;14;
71858;PMS5003;59713;50.866;4.324;2023-10-13T03:15:32;16;14;
71858;PMS5003;59713;50.866;4.324;2023-10-13T03:16:32;16;14;
71858;PMS5003;59713;50.866;4.324;2023-10-13T03:16:32;16;14;
71858;PMS5003;59713;50.866;4.324;2023-10-13T03:17:32;10;10;
71858;PMS5003;59713;50.866;4.324;2023-10-13T03:18:32;10;10;
71858;PMS5003;59713;50.866;4.324;2023-10-13T03:19:32;10;10;
71858;PMS5003;59713;50.866;4.324;2023-10-13T03:20:32;17;15;
71858;PMS5003;59713;50.866;4.324;2023-10-13T03:21:32;17;15;
71858;PMS5003;59713;50.866;4.324;2023-10-13T03:22:32;17;15;
71858;PMS5003;59713;50.866;4.324;2023-10-13T03:23:32;17;14;
71858;PMS5003;59713;50.866;4.324;2023-10-13T03:24:32;17;14;
71858;PMS5003;59713;50.866;4.324;2023-10-13T03:25:32;17;14;
71858;PMS5003;59713;50.866;4.324;2023-10-13T03:25:32;17;14;
71858;PMS5003;59713;50.866;4.324;2023-10-13T03:26:32;18;14;
71858;PMS5003;59713;50.866;4.324;2023-10-13T03:27:32;18;14;
71858;PMS5003;59713;50.866;4.324;2023-10-13T03:28:32;18;14;
71858;PMS5003;59713;50.866;4.324;2023-10-13T03:29:32;17;12;
71858;PMS5003;59713;50.866;4.324;2023-10-13T03:30:32;17;12;
71858;PMS5003;59713;50.866;4.324;2023-10-13T03:31:32;17;12;
71858;PMS5003;59713;50.866;4.324;2023-10-13T03:32:32;9;8;
71858;PMS5003;59713;50.866;4.324;2023-10-13T03:33:32;9;8;
71858;PMS5003;59713;50.866;4.324;2023-10-13T03:34:32;9;8;
71858;PMS5003;59713;50.866;4.324;2023-10-13T03:35:33;13;12;
71858;PMS5003;59713;50.866;4.324;2023-10-13T03:35:33;13;12;
71858;PMS5003;59713;50.866;4.324;2023-10-13T03:36:32;13;12;
71858;PMS5003;59713;50.866;4.324;2023-10-13T03:37:32;13;12;
71858;PMS5003;59713;50.866;4.324;2023-10-13T03:38:32;13;12;
71858;PMS5003;59713;50.866;4.324;2023-10-13T03:39:32;13;12;
71858;PMS5003;59713;50.866;4.324;2023-10-13T03:40:32;13;12;
71858;PMS5003;59713;50.866;4.324;2023-10-13T03:41:32;11;10;
71858;PMS5003;59713;50.866;4.324;2023-10-13T03:42:32;11;10;
71858;PMS5003;59713;50.866;4.324;2023-10-13T03:43:32;11;10;
71858;PMS5003;59713;50.866;4.324;2023-10-13T03:44:32;10;10;
71858;PMS5003;59713;50.866;4.324;2023-10-13T03:44:32;10;10;
71858;PMS5003;59713;50.866;4.324;2023-10-13T03:45:32;10;10;
71858;PMS5003;59713;50.866;4.324;2023-10-13T03:46:32;10;10;
71858;PMS5003;59713;50.866;4.324;2023-10-13T03:47:32;13;12;
71858;PMS5003;59713;50.866;4.324;2023-10-13T03:48:32;13;12;
71858;PMS5003;59713;50.866;4.324;2023-10-13T03:49:32;13;12;
71858;PMS5003;59713;50.866;4.324;2023-10-13T03:50:32;13;10;
71858;PMS5003;59713;50.866;4.324;2023-10-13T03:51:32;13;10;
71858;PMS5003;59713;50.866;4.324;2023-10-13T03:52:32;13;10;
71858;PMS5003;59713;50.866;4.324;2023-10-13T03:53:32;12;12;
71858;PMS5003;59713;50.866;4.324;2023-10-13T03:53:32;12;12;
71858;PMS5003;59713;50.866;4.324;2023-10-13T03:54:32;12;12;
71858;PMS5003;59713;50.866;4.324;2023-10-13T03:55:32;12;12;
71858;PMS5003;59713;50.866;4.324;2023-10-13T03:56:32;11;11;
71858;PMS5003;59713;50.866;4.324;2023-10-13T03:57:32;11;11;
71858;PMS5003;59713;50.866;4.324;2023-10-13T03:58:32;11;11;
71858;PMS5003;59713;50.866;4.324;2023-10-13T03:59:32;14;13;
71858;PMS5003;59713;50.866;4.324;2023-10-13T04:00:32;14;13;
71858;PMS5003;59713;50.866;4.324;2023-10-13T04:01:32;14;13;
71858;PMS5003;59713;50.866;4.324;2023-10-13T04:02:32;14;12;
71858;PMS5003;59713;50.866;4.324;2023-10-13T04:02:32;14;12;
71858;PMS5003;59713;50.866;4.324;2023-10-13T04:03:32;14;12;
71858;PMS5003;59713;50.866;4.324;2023-10-13T04:04:32;14;12;
71858;PMS5003;59713;50.866;4.324;2023-10-13T04:05:32;10;7;
71858;PMS5003;59713;50.866;4.324;2023-10-13T04:06:32;10;7;
71858;PMS5003;59713;50.866;4.324;2023-10-13T04:07:32;10;7;
71858;PMS5003;59713;50.866;4.324;2023-10-13T04:08:32;12;10;
71858;PMS5003;59713;50.866;4.324;2023-10-13T04:09:32;12;10;
71858;PMS5003;59713;50.866;4.324;2023-10-13T04:10:32;12;10;
71858;PMS5003;59713;50.866;4.324;2023-10-13T04:11:32;13;12;
71858;PMS5003;59713;50.866;4.324;2023-10-13T04:11:32;13;12;
71858;PMS5003;59713;50.866;4.324;2023-10-13T04:12:32;13;12;
71858;PMS5003;59713;50.866;4.324;2023-10-13T04:13:32;13;12;
71858;PMS5003;59713;50.866;4.324;2023-10-13T04:14:33;17;12;
71858;PMS5003;59713;50.866;4.324;2023-10-13T04:15:32;17;12;
71858;PMS5003;59713;50.866;4.324;2023-10-13T04:16:32;17;12;
71858;PMS5003;59713;50.866;4.324;2023-10-13T04:17:32;14;13;
71858;PMS5003;59713;50.866;4.324;2023-10-13T04:18:32;14;13;
71858;PMS5003;59713;50.866;4.324;2023-10-13T04:19:32;14;13;
71858;PMS5003;59713;50.866;4.324;2023-10-13T04:20:32;11;9;
71858;PMS5003;59713;50.866;4.324;2023-10-13T04:20:32;11;9;
71858;PMS5003;59713;50.866;4.324;2023-10-13T04:21:32;11;9;
71858;PMS5003;59713;50.866;4.324;2023-10-13T04:22:32;11;9;
71858;PMS5003;59713;50.866;4.324;2023-10-13T04:23:32;13;11;
71858;PMS5003;59713;50.866;4.324;2023-10-13T04:24:32;13;11;
71858;PMS5003;59713;50.866;4.324;2023-10-13T04:25:32;13;11;
71858;PMS5003;59713;50.866;4.324;2023-10-13T04:26:32;14;10;
71858;PMS5003;59713;50.866;4.324;2023-10-13T04:27:32;14;10;
71858;PMS5003;59713;50.866;4.324;2023-10-13T04:28:32;14;10;
71858;PMS5003;59713;50.866;4.324;2023-10-13T04:29:32;14;11;
71858;PMS5003;59713;50.866;4.324;2023-10-13T04:30:35;14;11;
71858;PMS5003;59713;50.866;4.324;2023-10-13T04:30:35;14;11;
71858;PMS5003;59713;50.866;4.324;2023-10-13T04:31:32;14;11;
71858;PMS5003;59713;50.866;4.324;2023-10-13T04:32:32;15;11;
71858;PMS5003;59713;50.866;4.324;2023-10-13T04:33:32;15;11;
71858;PMS5003;59713;50.866;4.324;2023-10-13T04:34:32;15;11;
71858;PMS5003;59713;50.866;4.324;2023-10-13T04:35:32;16;12;
71858;PMS5003;59713;50.866;4.324;2023-10-13T04:36:32;16;12;
71858;PMS5003;59713;50.866;4.324;2023-10-13T04:37:32;16;12;
71858;PMS5003;59713;50.866;4.324;2023-10-13T04:38:32;10;8;
71858;PMS5003;59713;50.866;4.324;2023-10-13T04:39:32;10;8;
71858;PMS5003;59713;50.866;4.324;2023-10-13T04:39:32;10;8;
71858;PMS5003;59713;50.866;4.324;2023-10-13T04:40:32;10;8;
71858;PMS5003;59713;50.866;4.324;2023-10-13T04:41:32;17;9;
71858;PMS5003;59713;50.866;4.324;2023-10-13T04:42:32;17;9;
71858;PMS5003;59713;50.866;4.324;2023-10-13T04:43:32;17;9;
71858;PMS5003;59713;50.866;4.324;2023-10-13T04:44:32;11;9;
71858;PMS5003;59713;50.866;4.324;2023-10-13T04:45:32;11;9;
71858;PMS5003;59713;50.866;4.324;2023-10-13T04:46:32;11;9;
71858;PMS5003;59713;50.866;4.324;2023-10-13T04:47:32;10;7;
71858;PMS5003;59713;50.866;4.324;2023-10-13T04:48:32;10;7;
71858;PMS5003;59713;50.866;4.324;2023-10-13T04:49:32;10;7;
71858;PMS5003;59713;50.866;4.324;2023-10-13T04:49:33;10;7;
71858;PMS5003;59713;50.866;4.324;2023-10-13T04:50:32;11;10;
71858;PMS5003;59713;50.866;4.324;2023-10-13T04:51:32;11;10;
71858;PMS5003;59713;50.866;4.324;2023-10-13T04:52:32;11;10;
71858;PMS5003;59713;50.866;4.324;2023-10-13T04:53:32;8;8;
71858;PMS5003;59713;50.866;4.324;2023-10-13T04:54:32;8;8;
71858;PMS5003;59713;50.866;4.324;2023-10-13T04:55:33;8;8;
71858;PMS5003;59713;50.866;4.324;2023-10-13T04:56:32;14;12;
71858;PMS5003;59713;50.866;4.324;2023-10-13T04:57:32;14;12;
71858;PMS5003;59713;50.866;4.324;2023-10-13T04:58:32;14;12;
71858;PMS5003;59713;50.866;4.324;2023-10-13T04:58:32;14;12;
71858;PMS5003;59713;50.866;4.324;2023-10-13T04:59:32;10;7;
71858;PMS5003;59713;50.866;4.324;2023-10-13T05:00:32;10;7;
71858;PMS5003;59713;50.866;4.324;2023-10-13T05:01:32;10;7;
71858;PMS5003;59713;50.866;4.324;2023-10-13T05:02:32;7;7;
71858;PMS5003;59713;50.866;4.324;2023-10-13T05:03:32;7;7;
71858;PMS5003;59713;50.866;4.324;2023-10-13T05:04:32;7;7;
71858;PMS5003;59713;50.866;4.324;2023-10-13T05:05:32;9;8;
71858;PMS5003;59713;50.866;4.324;2023-10-13T05:06:33;9;8;
71858;PMS5003;59713;50.866;4.324;2023-10-13T05:07:32;9;8;
71858;PMS5003;59713;50.866;4.324;2023-10-13T05:07:32;9;8;
71858;PMS5003;59713;50.866;4.324;2023-10-13T05:08:32;12;8;
71858;PMS5003;59713;50.866;4.324;2023-10-13T05:09:32;12;8;
71858;PMS5003;59713;50.866;4.324;2023-10-13T05:10:32;12;8;
71858;PMS5003;59713;50.866;4.324;2023-10-13T05:11:32;10;9;
71858;PMS5003;59713;50.866;4.324;2023-10-13T05:12:32;10;9;
71858;PMS5003;59713;50.866;4.324;2023-10-13T05:13:32;10;9;
71858;PMS5003;59713;50.866;4.324;2023-10-13T05:14:32;6;6;
71858;PMS5003;59713;50.866;4.324;2023-10-13T05:15:32;6;6;
71858;PMS5003;59713;50.866;4.324;2023-10-13T05:16:32;6;6;
71858;PMS5003;59713;50.866;4.324;2023-10-13T05:17:32;11;8;
71858;PMS5003;59713;50.866;4.324;2023-10-13T05:18:32;11;8;
71858;PMS5003;59713;50.866;4.324;2023-10-13T05:19:32;11;8;
71858;PMS5003;59713;50.866;4.324;2023-10-13T05:20:32;9;9;
71858;PMS5003;59713;50.866;4.324;2023-10-13T05:21:32;9;9;
71858;PMS5003;59713;50.866;4.324;2023-10-13T05:22:32;9;9;
71858;PMS5003;59713;50.866;4.324;2023-10-13T05:23:32;9;9;
71858;PMS5003;59713;50.866;4.324;2023-10-13T05:24:32;9;9;
71858;PMS5003;59713;50.866;4.324;2023-10-13T05:25:34;9;9;
71858;PMS5003;59713;50.866;4.324;2023-10-13T05:26:32;9;9;
71858;PMS5003;59713;50.866;4.324;2023-10-13T05:27:32;9;9;
71858;PMS5003;59713;50.866;4.324;2023-10-13T05:28:32;9;9;
71858;PMS5003;59713;50.866;4.324;2023-10-13T05:29:32;16;9;
71858;PMS5003;59713;50.866;4.324;2023-10-13T05:30:32;16;9;
71858;PMS5003;59713;50.866;4.324;2023-10-13T05:31:32;16;9;
71858;PMS5003;59713;50.866;4.324;2023-10-13T05:32:32;10;9;
71858;PMS5003;59713;50.866;4.324;2023-10-13T05:33:32;10;9;
71858;PMS5003;59713;50.866;4.324;2023-10-13T05:34:33;10;9;
71858;PMS5003;59713;50.866;4.324;2023-10-13T05:35:32;7;7;
71858;PMS5003;59713;50.866;4.324;2023-10-13T05:35:32;7;7;
71858;PMS5003;59713;50.866;4.324;2023-10-13T05:36:32;7;7;
71858;PMS5003;59713;50.866;4.324;2023-10-13T05:37:32;7;7;
71858;PMS5003;59713;50.866;4.324;2023-10-13T05:38:32;12;8;
71858;PMS5003;59713;50.866;4.324;2023-10-13T05:39:32;12;8;
71858;PMS5003;59713;50.866;4.324;2023-10-13T05:40:32;12;8;
71858;PMS5003;59713;50.866;4.324;2023-10-13T05:41:32;10;7;
71858;PMS5003;59713;50.866;4.324;2023-10-13T05:42:32;10;7;
71858;PMS5003;59713;50.866;4.324;2023-10-13T05:43:32;10;7;
71858;PMS5003;59713;50.866;4.324;2023-10-13T05:44:32;9;8;
71858;PMS5003;59713;50.866;4.324;2023-10-13T05:45:34;9;8;
71858;PMS5003;59713;50.866;4.324;2023-10-13T05:45:34;9;8;
71858;PMS5003;59713;50.866;4.324;2023-10-13T05:46:32;9;8;
71858;PMS5003;59713;50.866;4.324;2023-10-13T05:47:35;6;6;
71858;PMS5003;59713;50.866;4.324;2023-10-13T05:48:32;6;6;
71858;PMS5003;59713;50.866;4.324;2023-10-13T05:49:32;6;6;
71858;PMS5003;59713;50.866;4.324;2023-10-13T05:50:32;8;8;
71858;PMS5003;59713;50.866;4.324;2023-10-13T05:51:32;8;8;
71858;PMS5003;59713;50.866;4.324;2023-10-13T05:52:32;8;8;
71858;PMS5003;59713;50.866;4.324;2023-10-13T05:53:32;8;7;
71858;PMS5003;59713;50.866;4.324;2023-10-13T05:54:32;8;7;
71858;PMS5003;59713;50.866;4.324;2023-10-13T05:54:32;8;7;
71858;PMS5003;59713;50.866;4.324;2023-10-13T05:55:32;8;7;
71858;PMS5003;59713;50.866;4.324;2023-10-13T05:56:32;9;8;
71858;PMS5003;59713;50.866;4.324;2023-10-13T05:57:32;9;8;
71858;PMS5003;59713;50.866;4.324;2023-10-13T05:58:32;9;8;
71858;PMS5003;59713;50.866;4.324;2023-10-13T05:59:34;11;10;
71858;PMS5003;59713;50.866;4.324;2023-10-13T06:00:37;11;10;
71858;PMS5003;59713;50.866;4.324;2023-10-13T06:01:32;11;10;
71858;PMS5003;59713;50.866;4.324;2023-10-13T06:02:32;14;8;
71858;PMS5003;59713;50.866;4.324;2023-10-13T06:03:32;14;8;